Time;durP1;ratioP1;P1;durP2;ratioP2;P2;SDS_P1;SDS_P2;PMS_P1;PMS_P2;Temp;Humidity;BMP_temperature;BMP_pressure;BME280_temperature;BME280_humidity;BME280_pressure;Samples;Min_cycle;Max_cycle;Signal;HPM_P1;HPM_P2
2022/02/27 00:02:23;;;;;;;6.57;3.40;;;;;;;;;;5072702;28;20200;-86
2022/02/27 00:04:50;;;;;;;5.57;3.17;;;;;;;;;;5076550;28;20232;-87
2022/02/27 00:07:18;;;;;;;4.68;3.10;;;;;;;;;;5075923;28;20202;-87
2022/02/27 00:09:45;;;;;;;5.07;2.70;;;;;;;;;;5061332;28;20688;-87
2022/02/27 00:12:13;;;;;;;5.65;2.40;;;0.60;97.00;;;;;;5065725;28;20456;-88
2022/02/27 00:14:40;;;;;;;2.90;2.65;;;;;;;;;;5070133;28;20264;-88
2022/02/27 00:17:08;;;;;;;5.95;3.20;;;;;;;;;;5070242;28;20195;-87
2022/02/27 00:19:35;;;;;;;14.32;3.53;;;0.70;96.00;;;;;;5069220;28;20255;-88
2022/02/27 00:22:02;;;;;;;4.35;2.95;;;0.90;96.20;;;;;;5069389;28;20199;-88
2022/02/27 00:24:29;;;;;;;3.80;2.90;;;;;;;;;;5069963;28;20216;-89
2022/02/27 00:26:57;;;;;;;10.05;3.35;;;1.10;99.40;;;;;;5069054;28;20658;-88
2022/02/27 00:29:25;;;;;;;7.13;2.78;;;1.10;90.10;;;;;;5069532;28;20196;-89
2022/02/27 00:31:52;;;;;;;2.97;2.70;;;1.00;99.60;;;;;;5069481;28;20230;-88
2022/02/27 00:34:19;;;;;;;3.88;3.08;;;;;;;;;;5050079;28;20203;-88
2022/02/27 00:36:50;;;;;;;8.30;2.97;;;;;;;;;;5049046;28;20204;-89
2022/02/27 00:39:18;;;;;;;4.65;3.63;;;;;;;;;;5065897;28;20219;-89
2022/02/27 00:41:45;;;;;;;4.55;2.70;;;;;;;;;;5067708;28;20567;-88
2022/02/27 00:44:12;;;;;;;5.43;2.30;;;;;;;;;;5068805;28;20662;-88
2022/02/27 00:46:40;;;;;;;9.07;3.47;;;1.00;99.90;;;;;;5068752;28;20684;-89
2022/02/27 00:49:08;;;;;;;5.55;3.45;;;;;;;;;;5068005;28;20662;-89
2022/02/27 00:51:35;;;;;;;5.75;2.58;;;;;;;;;;5068752;28;20797;-88
2022/02/27 00:54:02;;;;;;;6.45;2.72;;;;;;;;;;5069574;28;20278;-90
2022/02/27 00:56:29;;;;;;;6.18;2.97;;;;;;;;;;5068385;28;20203;-89
2022/02/27 00:58:56;;;;;;;3.55;3.05;;;;;;;;;;5067660;28;20770;-88
2022/02/27 01:01:24;;;;;;;6.65;3.13;;;;;;;;;;5068341;28;20196;-89
2022/02/27 01:03:52;;;;;;;4.68;2.70;;;0.30;99.40;;;;;;5068402;28;20585;-88
2022/02/27 01:06:19;;;;;;;5.63;2.97;;;;;;;;;;5061310;28;20712;-89
2022/02/27 01:08:47;;;;;;;3.15;2.55;;;1.00;96.50;;;;;;5068468;28;20231;-89
2022/02/27 01:11:17;;;;;;;4.13;3.28;;;;;;;;;;5068325;28;20763;-88
2022/02/27 01:13:45;;;;;;;5.45;3.30;;;;;;;;;;5068572;28;20196;-87
2022/02/27 01:16:12;;;;;;;3.80;2.80;;;;;;;;;;5067678;28;20211;-89
2022/02/27 01:18:40;;;;;;;3.33;2.40;;;;;;;;;;5067984;28;20753;-89
2022/02/27 01:21:09;;;;;;;10.98;3.20;;;1.00;90.90;;;;;;5068011;28;20749;-88
2022/02/27 01:23:37;;;;;;;5.72;3.35;;;;;;;;;;5068368;28;20219;-89
2022/02/27 01:26:06;;;;;;;6.97;3.25;;;;;;;;;;5068012;28;20207;-88
2022/02/27 01:28:35;;;;;;;5.82;2.92;;;;;;;;;;5068042;28;20202;-89
2022/02/27 01:31:03;;;;;;;6.95;3.13;;;0.90;98.90;;;;;;5067962;28;20203;-88
2022/02/27 01:33:31;;;;;;;2.83;2.55;;;0.90;97.00;;;;;;5067826;28;20235;-89
2022/02/27 01:35:58;;;;;;;4.18;2.58;;;;;;;;;;5067754;28;20511;-89
2022/02/27 01:38:26;;;;;;;3.53;3.22;;;0.50;91.20;;;;;;5067717;28;20215;-89
2022/02/27 01:40:54;;;;;;;3.75;3.20;;;0.60;99.90;;;;;;5060046;28;20199;-89
2022/02/27 01:43:22;;;;;;;11.00;3.17;;;;;;;;;;5066986;28;20199;-89
2022/02/27 01:45:49;;;;;;;4.80;3.25;;;0.90;99.90;;;;;;5067771;28;20461;-87
2022/02/27 01:48:16;;;;;;;4.32;2.65;;;;;;;;;;5067513;28;20256;-90
2022/02/27 01:50:43;;;;;;;6.43;2.70;;;0.40;96.90;;;;;;5068296;28;20199;-89
2022/02/27 01:53:10;;;;;;;8.73;2.90;;;;;;;;;;5067688;28;20219;-89
2022/02/27 01:55:39;;;;;;;4.38;2.55;;;0.60;91.50;;;;;;5066912;28;20543;-88
2022/02/27 01:58:06;;;;;;;6.05;3.03;;;0.40;95.10;;;;;;5066951;28;20528;-89
2022/02/27 02:00:33;;;;;;;3.67;3.28;;;;;;;;;;5059972;28;20347;-89
2022/02/27 02:03:00;;;;;;;4.78;2.55;;;0.00;96.60;;;;;;5061014;28;20196;-89
2022/02/27 02:05:27;;;;;;;9.55;3.45;;;;;;;;;;5063240;28;20198;-88
2022/02/27 02:07:54;;;;;;;8.00;2.80;;;;;;;;;;5063855;28;20208;-88
2022/02/27 02:10:22;;;;;;;4.43;2.75;;;0.20;99.90;;;;;;5054926;28;20282;-89
2022/02/27 02:12:51;;;;;;;5.80;2.40;;;0.30;99.90;;;;;;5068033;28;20203;-88
2022/02/27 02:15:18;;;;;;;4.75;2.58;;;0.40;99.90;;;;;;5067677;28;20702;-89
2022/02/27 02:17:46;;;;;;;3.10;2.53;;;;;;;;;;5067146;28;20192;-89
2022/02/27 02:20:18;;;;;;;5.57;3.47;;;-0.10;99.90;;;;;;5067567;28;20226;-89
2022/02/27 02:22:46;;;;;;;4.07;2.22;;;;;;;;;;5067328;28;20883;-88
2022/02/27 02:25:14;;;;;;;5.72;2.70;;;0.10;97.80;;;;;;5067329;28;20199;-88
2022/02/27 02:27:41;;;;;;;6.70;3.08;;;0.30;99.90;;;;;;5067617;28;20245;-88
2022/02/27 02:30:10;;;;;;;6.20;2.80;;;0.20;97.90;;;;;;5067850;28;20199;-88
2022/02/27 02:32:51;;;;;;;5.68;3.03;;;0.10;98.00;;;;;;5067486;28;20329;-88
2022/02/27 02:35:22;;;;;;;4.00;3.60;;;0.20;92.50;;;;;;5066974;28;20273;-88
2022/02/27 02:37:49;;;;;;;13.63;2.90;;;;;;;;;;5066780;28;20203;-88
2022/02/27 02:40:17;;;;;;;3.85;2.50;;;;;;;;;;5060995;28;20219;-88
2022/02/27 02:42:46;;;;;;;6.57;3.10;;;0.20;92.70;;;;;;5067347;28;20237;-88
2022/02/27 02:45:14;;;;;;;7.25;3.75;;;;;;;;;;5067644;28;20230;-89
2022/02/27 02:47:41;;;;;;;6.05;3.42;;;0.80;98.60;;;;;;5066511;28;20195;-89
2022/02/27 02:50:09;;;;;;;4.32;2.58;;;0.20;99.90;;;;;;5066973;28;20267;-88
2022/02/27 02:52:38;;;;;;;5.65;3.00;;;0.00;98.10;;;;;;5067236;28;20268;-88
2022/02/27 02:55:07;;;;;;;7.65;3.42;;;0.00;99.00;;;;;;5063751;28;20269;-87
2022/02/27 02:57:34;;;;;;;5.30;3.00;;;;;;;;;;5064860;28;20227;-89
2022/02/27 03:00:02;;;;;;;4.95;3.00;;;;;;;;;;5067058;28;20215;-88
2022/02/27 03:02:29;;;;;;;8.27;3.17;;;;;;;;;;5062285;28;20662;-90
2022/02/27 03:04:56;;;;;;;7.22;3.88;;;;;;;;;;5047750;28;20207;-88
2022/02/27 03:07:24;;;;;;;5.07;2.60;;;;;;;;;;5067828;28;20199;-89
2022/02/27 03:09:52;;;;;;;4.28;2.60;;;0.00;93.10;;;;;;5070649;28;20566;-88
2022/02/27 03:12:19;;;;;;;5.70;3.92;;;;;;;;;;5071493;28;20200;-88
2022/02/27 03:14:46;;;;;;;4.93;3.20;;;;;;;;;;5071252;28;20623;-89
2022/02/27 03:17:14;;;;;;;6.82;3.40;;;;;;;;;;5070335;28;20304;-89
2022/02/27 03:19:41;;;;;;;5.22;2.90;;;;;;;;;;5070912;28;20230;-88
2022/02/27 03:22:08;;;;;;;7.25;3.15;;;;;;;;;;5071009;28;20249;-88
2022/02/27 03:24:35;;;;;;;5.95;3.78;;;;;;;;;;5071356;28;20230;-89
2022/02/27 03:27:04;;;;;;;3.85;2.67;;;0.20;93.40;;;;;;5070409;28;20208;-89
2022/02/27 03:29:31;;;;;;;4.88;3.40;;;-0.10;98.40;;;;;;5070887;28;20238;-89
2022/02/27 03:31:58;;;;;;;10.93;3.85;;;;;;;;;;5069249;28;20211;-88
2022/02/27 03:34:25;;;;;;;2.95;2.75;;;-0.10;99.90;;;;;;5070430;28;20211;-89
2022/02/27 03:36:52;;;;;;;5.10;2.72;;;;;;;;;;5070545;28;20242;-89
2022/02/27 03:39:35;;;;;;;8.52;3.78;;;0.00;93.80;;;;;;5064938;28;20208;-88
2022/02/27 03:45:35;;;;;;;8.55;3.33;;;0.00;93.90;;;;;;5053029;28;20207;-89
2022/02/27 03:48:26;;;;;;;6.13;3.70;;;-0.10;93.90;;;;;;5053757;28;20200;-86
2022/02/27 03:51:01;;;;;;;10.98;4.10;;;-0.10;94.20;;;;;;5064067;28;20333;-87
2022/02/27 03:53:37;;;;;;;11.23;4.00;;;;;;;;;;5073254;28;20195;-88
2022/02/27 03:56:14;;;;;;;5.65;3.42;;;;;;;;;;5071719;28;20210;-89
2022/02/27 03:58:45;;;;;;;4.35;2.83;;;-0.30;94.40;;;;;;5069936;28;20199;-88
2022/02/27 04:01:13;;;;;;;10.98;3.60;;;;;;;;;;5069810;28;20686;-88
2022/02/27 04:04:00;;;;;;;4.85;3.60;;;-0.30;94.80;;;;;;5057622;28;20549;-89
2022/02/27 04:06:30;;;;;;;4.25;3.67;;;-0.30;94.80;;;;;;5069032;28;20195;-90
2022/02/27 04:09:03;;;;;;;10.60;4.25;;;;;;;;;;5058218;28;20667;-88
2022/02/27 04:11:36;;;;;;;7.55;4.15;;;;;;;;;;5061518;28;20208;-88
2022/02/27 04:14:07;;;;;;;6.18;3.03;;;-0.50;99.90;;;;;;5069727;28;20199;-88
2022/02/27 04:16:40;;;;;;;3.83;3.20;;;;;;;;;;5069588;28;20291;-88
2022/02/27 04:19:07;;;;;;;4.40;3.55;;;;;;;;;;5069607;28;20610;-89
2022/02/27 04:21:36;;;;;;;7.75;3.38;;;-0.70;95.20;;;;;;5068665;28;20203;-90
2022/02/27 04:24:06;;;;;;;5.70;3.70;;;-0.50;95.70;;;;;;5069779;28;20187;-87
2022/02/27 04:26:38;;;;;;;4.93;3.25;;;-0.50;95.90;;;;;;5069078;28;20234;-88
2022/02/27 04:29:05;;;;;;;3.63;2.85;;;;;;;;;;5070374;28;20615;-90
2022/02/27 04:31:37;;;;;;;5.00;3.15;;;-0.60;95.70;;;;;;5069496;28;20195;-88
2022/02/27 04:34:06;;;;;;;7.15;3.70;;;;;;;;;;5049129;28;20489;-88
2022/02/27 04:36:33;;;;;;;6.05;3.53;;;;;;;;;;5060456;28;20198;-87
2022/02/27 04:39:00;;;;;;;3.60;3.20;;;;;;;;;;5065714;28;20666;-89
2022/02/27 04:41:28;;;;;;;5.60;3.90;;;;;;;;;;5064983;28;20195;-89
2022/02/27 04:43:56;;;;;;;13.68;3.90;;;;;;;;;;5070158;28;20570;-87
2022/02/27 04:46:25;;;;;;;7.60;4.10;;;;;;;;;;5062375;28;20599;-89
2022/02/27 04:48:53;;;;;;;3.78;3.35;;;-0.70;95.90;;;;;;5068083;28;20202;-88
2022/02/27 04:51:21;;;;;;;5.38;4.03;;;;;;;;;;5069070;28;20743;-89
2022/02/27 04:53:49;;;;;;;5.75;3.42;;;;;;;;;;5069214;28;20251;-88
2022/02/27 04:56:16;;;;;;;5.38;3.33;;;-0.80;99.90;;;;;;5049786;28;20231;-87
2022/02/27 04:58:43;;;;;;;6.75;3.33;;;;;;;;;;5069534;28;20260;-88
2022/02/27 05:01:11;;;;;;;8.63;3.50;;;;;;;;;;5068371;28;20223;-88
2022/02/27 05:03:38;;;;;;;6.22;3.33;;;;;;;;;;5068983;28;20195;-88
2022/02/27 05:06:10;;;;;;;4.30;2.67;;;-0.60;95.70;;;;;;5068137;28;20615;-87
2022/02/27 05:08:37;;;;;;;7.47;3.75;;;;;;;;;;5061759;28;20212;-88
2022/02/27 05:11:04;;;;;;;7.75;4.35;;;;;;;;;;5062854;28;20277;-88
2022/02/27 05:13:34;;;;;;;7.45;4.32;;;;;;;;;;5068783;28;20618;-89
2022/02/27 05:16:02;;;;;;;8.07;4.50;;;-0.40;96.20;;;;;;5068616;28;20222;-89
2022/02/27 05:18:29;;;;;;;12.15;5.57;;;;;;;;;;5048255;28;20200;-90
2022/02/27 05:20:57;;;;;;;7.03;4.47;;;;;;;;;;5062596;28;20220;-88
2022/02/27 05:23:25;;;;;;;7.57;4.53;;;-0.20;95.80;;;;;;5068623;28;20203;-87
2022/02/27 05:25:58;;;;;;;13.35;5.63;;;;;;;;;;5068646;28;20269;-87
2022/02/27 05:28:28;;;;;;;6.22;4.72;;;-0.10;95.70;;;;;;5067739;28;20199;-87
2022/02/27 05:30:56;;;;;;;7.72;4.65;;;-0.20;95.70;;;;;;5067955;28;20306;-88
2022/02/27 05:33:23;;;;;;;7.53;5.00;;;;;;;;;;5061657;28;20292;-87
2022/02/27 05:35:53;;;;;;;6.05;4.45;;;;;;;;;;5068443;28;20620;-88
2022/02/27 05:38:23;;;;;;;8.85;4.35;;;;;;;;;;5068430;28;20261;-88
2022/02/27 05:40:52;;;;;;;7.78;4.72;;;-0.10;99.90;;;;;;5049462;28;20769;-87
2022/02/27 05:43:19;;;;;;;21.83;5.43;;;0.50;99.90;;;;;;5068200;28;20319;-88
2022/02/27 05:45:50;;;;;;;13.20;6.25;;;;;;;;;;5068219;28;20199;-88
2022/02/27 05:48:17;;;;;;;9.32;5.22;;;;;;;;;;5068128;28;20269;-88
2022/02/27 05:50:44;;;;;;;7.38;5.55;;;;;;;;;;5068560;28;20203;-88
2022/02/27 05:53:11;;;;;;;7.18;5.38;;;;;;;;;;5067694;28;20264;-89
2022/02/27 05:55:38;;;;;;;7.72;4.97;;;0.10;98.20;;;;;;5067716;28;20609;-88
2022/02/27 05:58:06;;;;;;;8.57;4.90;;;0.10;99.90;;;;;;5067467;28;20681;-87
2022/02/27 06:00:36;;;;;;;7.78;4.80;;;0.00;95.70;;;;;;5068339;28;20238;-88
2022/02/27 06:03:04;;;;;;;6.82;4.88;;;;;;;;;;5067823;28;20202;-87
2022/02/27 06:05:31;;;;;;;8.23;4.95;;;;;;;;;;5067912;28;20666;-88
2022/02/27 06:07:58;;;;;;;5.45;4.30;;;;;;;;;;5066526;28;20247;-88
2022/02/27 06:10:27;;;;;;;7.40;5.40;;;-0.10;95.90;;;;;;5066984;28;20203;-88
2022/02/27 06:12:55;;;;;;;8.30;4.45;;;;;;;;;;5067647;28;20318;-88
2022/02/27 06:15:23;;;;;;;9.27;5.90;;;-0.10;96.20;;;;;;5067979;28;20713;-87
2022/02/27 06:17:50;;;;;;;5.65;4.70;;;;;;;;;;5067513;28;20276;-88
2022/02/27 06:20:17;;;;;;;8.25;4.90;;;;;;;;;;5067382;28;20258;-88
2022/02/27 06:22:48;;;;;;;9.27;5.22;;;0.30;99.90;;;;;;5067466;28;20654;-88
2022/02/27 06:25:19;;;;;;;13.85;5.53;;;0.30;99.90;;;;;;5068216;28;20291;-87
2022/02/27 06:27:46;;;;;;;15.73;5.95;;;;;;;;;;5067878;28;20199;-87
2022/02/27 06:30:18;;;;;;;7.13;5.55;;;0.30;99.90;;;;;;5067772;28;20544;-86
2022/02/27 06:32:49;;;;;;;8.02;5.80;;;0.30;99.90;;;;;;5065926;28;20641;-88
2022/02/27 06:35:18;;;;;;;8.10;5.93;;;0.30;95.40;;;;;;5068061;28;20211;-87
2022/02/27 06:37:49;;;;;;;9.60;5.03;;;0.40;95.80;;;;;;5061251;28;20219;-87
2022/02/27 06:40:18;;;;;;;6.32;5.32;;;;;;;;;;5059932;28;20211;-87
2022/02/27 06:42:48;;;;;;;8.85;6.15;;;;;;;;;;5074381;28;20210;-88
2022/02/27 06:45:17;;;;;;;7.25;5.47;;;0.50;95.50;;;;;;5073970;28;20224;-87
2022/02/27 06:47:44;;;;;;;12.98;5.20;;;;;;;;;;5073403;28;20301;-87
2022/02/27 06:50:13;;;;;;;12.20;5.97;;;0.50;99.90;;;;;;5074337;28;20286;-86
2022/02/27 06:52:40;;;;;;;5.53;5.03;;;2.30;96.60;;;;;;5074489;28;20589;-86
2022/02/27 06:55:08;;;;;;;11.50;5.68;;;0.60;99.90;;;;;;5074088;28;20967;-88
2022/02/27 06:57:35;;;;;;;10.43;5.60;;;;;;;;;;5073975;28;20195;-86
2022/02/27 07:00:02;;;;;;;7.95;5.30;;;;;;;;;;5073559;28;20275;-87
2022/02/27 07:02:30;;;;;;;12.90;5.68;;;;;;;;;;5074141;28;20253;-86
2022/02/27 07:04:57;;;;;;;8.15;6.55;;;;;;;;;;5074631;28;20199;-86
2022/02/27 07:07:25;;;;;;;9.98;6.45;;;0.80;95.40;;;;;;5073905;28;20290;-87
2022/02/27 07:09:52;;;;;;;8.23;5.28;;;1.40;95.80;;;;;;5070765;28;20191;-85
2022/02/27 07:12:19;;;;;;;10.75;6.47;;;;;;;;;;5074165;28;20191;-86
2022/02/27 07:14:46;;;;;;;9.05;5.63;;;1.40;99.90;;;;;;5074163;28;20203;-85
2022/02/27 07:17:13;;;;;;;7.65;5.50;;;1.40;95.10;;;;;;5073836;28;20223;-85
2022/02/27 07:19:40;;;;;;;7.88;5.60;;;1.50;94.90;;;;;;5074566;28;20611;-85
2022/02/27 07:22:07;;;;;;;8.55;5.72;;;;;;;;;;5073949;28;20766;-86
2022/02/27 07:24:35;;;;;;;9.70;6.00;;;1.90;94.00;;;;;;5074488;28;20222;-85
2022/02/27 07:27:03;;;;;;;11.13;5.32;;;1.80;98.50;;;;;;5073545;28;20301;-86
2022/02/27 07:29:30;;;;;;;11.60;6.05;;;1.80;94.00;;;;;;5074407;28;20259;-86
2022/02/27 07:31:57;;;;;;;7.57;6.07;;;1.90;93.90;;;;;;5074398;28;20286;-86
2022/02/27 07:34:23;;;;;;;8.98;6.40;;;2.00;93.80;;;;;;5071500;28;20239;-86
2022/02/27 07:36:51;;;;;;;10.95;6.90;;;2.00;94.00;;;;;;5076359;28;20203;-86
2022/02/27 07:39:19;;;;;;;9.15;5.57;;;2.00;93.60;;;;;;5077477;28;20286;-85
2022/02/27 07:41:47;;;;;;;8.88;6.63;;;1.90;97.70;;;;;;5071276;28;20223;-85
2022/02/27 07:44:34;;;;;;;7.13;5.75;;;2.20;99.90;;;;;;5074485;28;20721;-86
2022/02/27 07:47:04;;;;;;;13.18;6.68;;;2.30;99.90;;;;;;5073175;28;20735;-86
2022/02/27 07:49:32;;;;;;;8.32;6.22;;;3.00;97.80;;;;;;5073599;28;20223;-86
2022/02/27 07:51:59;;;;;;;7.45;6.38;;;2.40;96.00;;;;;;5071112;28;20226;-86
2022/02/27 07:54:26;;;;;;;10.73;6.00;;;;;;;;;;5069434;28;20221;-86
2022/02/27 07:56:55;;;;;;;12.43;7.03;;;2.50;99.90;;;;;;5069242;28;20199;-87
2022/02/27 07:59:22;;;;;;;10.35;6.15;;;2.60;92.70;;;;;;5069729;28;20740;-86
2022/02/27 08:01:49;;;;;;;11.00;6.00;;;2.60;92.40;;;;;;5067573;28;20293;-87
2022/02/27 08:04:16;;;;;;;10.65;5.95;;;;;;;;;;5068806;28;20800;-88
2022/02/27 08:06:43;;;;;;;7.82;6.38;;;2.70;98.20;;;;;;5067556;28;20200;-87
2022/02/27 08:09:11;;;;;;;9.43;7.00;;;3.10;92.40;;;;;;5057305;28;20595;-87
2022/02/27 08:11:38;;;;;;;8.75;5.88;;;3.00;91.20;;;;;;5068249;28;20203;-86
2022/02/27 08:14:10;;;;;;;9.98;6.50;;;3.00;91.20;;;;;;5069953;28;20187;-87
2022/02/27 08:16:36;;;;;;;6.53;5.55;;;3.10;91.70;;;;;;5067243;28;20679;-87
2022/02/27 08:19:04;;;;;;;7.53;6.00;;;3.30;99.30;;;;;;5069494;28;20204;-88
2022/02/27 08:21:32;;;;;;;10.77;6.32;;;2.90;94.70;;;;;;5069640;28;21016;-88
2022/02/27 08:23:59;;;;;;;9.82;7.28;;;3.60;91.10;;;;;;5069907;28;20227;-87
2022/02/27 08:26:26;;;;;;;8.30;5.90;;;3.40;90.60;;;;;;5069276;28;20305;-87
2022/02/27 08:28:55;;;;;;;6.53;5.38;;;3.40;90.70;;;;;;5068488;28;20286;-87
2022/02/27 08:31:30;;;;;;;9.35;5.63;;;3.60;90.30;;;;;;5044556;28;20222;-87
2022/02/27 08:33:59;;;;;;;9.10;5.50;;;3.70;94.50;;;;;;5049620;28;20219;-87
2022/02/27 08:36:26;;;;;;;12.93;5.70;;;3.70;90.10;;;;;;5064656;28;20200;-87
2022/02/27 08:38:57;;;;;;;8.93;6.10;;;3.70;90.10;;;;;;5069127;28;20666;-88
2022/02/27 08:41:24;;;;;;;7.20;5.60;;;3.90;90.00;;;;;;5070167;28;20227;-88
2022/02/27 08:43:51;;;;;;;7.68;6.07;;;4.00;88.30;;;;;;5069097;28;20204;-88
2022/02/27 08:46:18;;;;;;;7.35;5.38;;;3.60;93.20;;;;;;5068626;28;20745;-88
2022/02/27 08:48:46;;;;;;;5.35;4.85;;;3.60;88.50;;;;;;5069978;28;20203;-88
2022/02/27 08:51:13;;;;;;;8.05;5.18;;;;;;;;;;5068679;28;20218;-88
2022/02/27 08:53:44;;;;;;;8.02;5.50;;;3.90;87.10;;;;;;5069512;28;20230;-87
2022/02/27 08:56:27;;;;;;;13.65;6.78;;;4.10;87.20;;;;;;5069152;28;20225;-87
2022/02/27 08:58:55;;;;;;;8.18;5.65;;;;;;;;;;5069452;28;20199;-87
2022/02/27 09:01:22;;;;;;;9.90;6.03;;;4.20;87.00;;;;;;5069562;28;20231;-87
2022/02/27 09:03:50;;;;;;;10.38;5.45;;;4.40;88.10;;;;;;5068041;28;20221;-87
2022/02/27 09:06:17;;;;;;;8.10;5.75;;;4.50;87.20;;;;;;5050005;28;20425;-87
2022/02/27 09:08:44;;;;;;;8.85;5.57;;;4.50;86.40;;;;;;5069432;28;20298;-87
2022/02/27 09:11:11;;;;;;;7.28;5.25;;;4.60;85.70;;;;;;5067939;28;20280;-88
2022/02/27 09:13:38;;;;;;;9.20;6.07;;;4.60;85.30;;;;;;5068826;28;20257;-87
2022/02/27 09:16:05;;;;;;;9.95;5.20;;;4.70;85.10;;;;;;5068787;28;20565;-88
2022/02/27 09:18:32;;;;;;;6.53;5.20;;;4.70;84.80;;;;;;5069654;28;20272;-87
2022/02/27 09:21:01;;;;;;;6.35;5.50;;;4.70;84.60;;;;;;5068644;28;20246;-87
2022/02/27 09:23:28;;;;;;;9.02;6.43;;;4.80;83.60;;;;;;5068956;28;20689;-87
2022/02/27 09:25:55;;;;;;;6.05;5.45;;;4.70;84.00;;;;;;5060595;28;20300;-87
2022/02/27 09:28:24;;;;;;;9.50;5.80;;;4.80;83.50;;;;;;5068423;28;20248;-87
2022/02/27 09:30:51;;;;;;;9.07;6.50;;;5.00;83.80;;;;;;5068078;28;20628;-85
2022/02/27 09:33:18;;;;;;;10.27;5.88;;;5.00;83.00;;;;;;5068740;28;20306;-88
2022/02/27 09:35:45;;;;;;;8.10;5.03;;;5.10;82.50;;;;;;5068313;28;20195;-88
2022/02/27 09:38:13;;;;;;;9.85;5.20;;;5.20;89.90;;;;;;5068136;28;20203;-86
2022/02/27 09:40:40;;;;;;;6.25;4.70;;;5.20;81.80;;;;;;5059632;28;20799;-87
2022/02/27 09:43:07;;;;;;;11.88;5.00;;;5.20;89.80;;;;;;5067109;28;20418;-89
2022/02/27 09:45:34;;;;;;;6.80;5.32;;;5.20;80.20;;;;;;5068329;28;20282;-88
2022/02/27 09:48:01;;;;;;;8.13;5.18;;;5.40;79.30;;;;;;5066300;28;20294;-87
2022/02/27 09:50:28;;;;;;;6.05;4.47;;;5.40;79.40;;;;;;5058401;28;20222;-85
2022/02/27 09:52:58;;;;;;;3.80;3.28;;;5.40;83.10;;;;;;5065388;28;20285;-87
2022/02/27 09:55:27;;;;;;;4.68;4.28;;;5.50;76.90;;;;;;5067722;28;20286;-87
2022/02/27 09:57:53;;;;;;;9.57;4.30;;;5.60;74.90;;;;;;5068154;28;20207;-86
2022/02/27 10:00:20;;;;;;;4.90;4.00;;;5.60;74.80;;;;;;5068862;28;20202;-86
2022/02/27 10:03:17;;;;;;;6.00;3.90;;;5.70;75.00;;;;;;5068353;28;20644;-86
2022/02/27 10:05:46;;;;;;;4.43;3.80;;;5.60;74.60;;;;;;4986394;28;20289;-87
2022/02/27 10:08:14;;;;;;;6.45;3.85;;;5.90;73.60;;;;;;5049334;28;20219;-88
2022/02/27 10:10:55;;;;;;;4.18;3.75;;;8.20;76.00;;;;;;5068289;28;20227;-87
2022/02/27 10:13:32;;;;;;;4.03;3.58;;;5.90;71.00;;;;;;5068791;28;20207;-88
2022/02/27 10:16:04;;;;;;;4.93;4.10;;;5.80;70.50;;;;;;5067598;28;20202;-88
2022/02/27 10:18:38;;;;;;;5.22;4.72;;;5.80;71.00;;;;;;5070497;28;20578;-88
2022/02/27 10:21:26;;;;;;;4.10;3.67;;;5.90;72.30;;;;;;5067742;28;20318;-87
2022/02/27 10:23:58;;;;;;;5.40;4.07;;;6.00;70.90;;;;;;5068031;28;20669;-87
2022/02/27 10:26:29;;;;;;;4.78;4.38;;;6.00;70.80;;;;;;5066705;28;20701;-87
2022/02/27 10:29:07;;;;;;;5.38;3.78;;;6.00;72.10;;;;;;5068223;28;20689;-86
2022/02/27 10:31:34;;;;;;;3.30;3.00;;;6.10;69.40;;;;;;5068364;28;20206;-87
2022/02/27 10:34:16;;;;;;;5.22;4.07;;;6.10;70.00;;;;;;5067882;28;20234;-88
2022/02/27 10:37:00;;;;;;;6.43;4.13;;;6.20;69.60;;;;;;5066825;28;20725;-86
2022/02/27 10:39:29;;;;;;;4.40;3.95;;;6.10;68.30;;;;;;5068246;28;20202;-88
2022/02/27 10:42:09;;;;;;;4.30;3.65;;;6.10;68.50;;;;;;5047833;28;20219;-87
2022/02/27 10:44:37;;;;;;;4.95;2.92;;;6.10;67.50;;;;;;5047879;28;20231;-89
2022/02/27 10:47:13;;;;;;;3.28;2.97;;;6.10;75.40;;;;;;5047104;28;20228;-87
2022/02/27 10:49:41;;;;;;;3.97;3.20;;;5.80;66.00;;;;;;5048329;28;20206;-89
2022/02/27 10:52:19;;;;;;;3.60;3.25;;;5.90;65.90;;;;;;5046948;28;20636;-87
2022/02/27 10:54:48;;;;;;;3.92;2.58;;;5.90;66.50;;;;;;5047899;28;20203;-87
2022/02/27 10:57:32;;;;;;;8.48;3.50;;;6.00;65.80;;;;;;5046887;28;20712;-86
2022/02/27 11:00:12;;;;;;;4.68;2.90;;;6.10;64.10;;;;;;5047950;28;20199;-87
2022/02/27 11:02:39;;;;;;;9.77;2.92;;;6.10;62.30;;;;;;5052012;28;20584;-88
2022/02/27 11:05:10;;;;;;;3.15;2.83;;;6.10;62.60;;;;;;5067665;28;20676;-87
2022/02/27 11:07:38;;;;;;;3.70;2.95;;;6.10;61.80;;;;;;5067175;28;20203;-87
2022/02/27 11:10:06;;;;;;;3.10;2.60;;;6.20;61.40;;;;;;5067250;28;20219;-86
2022/02/27 11:12:36;;;;;;;4.38;2.63;;;6.20;59.60;;;;;;5068146;28;20323;-87
2022/02/27 11:15:07;;;;;;;4.75;2.92;;;6.30;59.30;;;;;;5067867;28;20207;-87
2022/02/27 11:17:40;;;;;;;4.53;2.83;;;6.30;67.70;;;;;;5067517;28;20250;-89
2022/02/27 11:20:20;;;;;;;6.60;3.20;;;6.30;60.10;;;;;;5067313;28;20199;-88
2022/02/27 11:22:54;;;;;;;5.10;2.58;;;6.00;59.00;;;;;;5067596;28;20222;-87
2022/02/27 11:25:26;;;;;;;2.90;2.60;;;6.70;60.20;;;;;;5067880;28;20230;-88
2022/02/27 11:28:05;;;;;;;3.55;2.90;;;6.20;59.40;;;;;;5067886;28;20203;-87
2022/02/27 11:30:37;;;;;;;3.13;2.85;;;6.10;59.10;;;;;;5071201;28;20203;-87
2022/02/27 11:33:08;;;;;;;3.45;2.97;;;6.00;65.20;;;;;;5071040;28;20221;-88
2022/02/27 11:35:39;;;;;;;4.20;3.17;;;6.00;67.10;;;;;;5071092;28;20673;-87
2022/02/27 11:38:11;;;;;;;5.35;3.30;;;6.20;58.30;;;;;;5070120;28;20203;-87
2022/02/27 11:40:44;;;;;;;3.50;3.17;;;6.80;67.10;;;;;;5061937;28;20662;-87
2022/02/27 11:43:17;;;;;;;4.53;3.20;;;7.00;59.70;;;;;;5050932;28;20224;-88
2022/02/27 11:46:14;;;;;;;3.15;2.95;;;6.20;59.90;;;;;;5050917;28;20204;-88
2022/02/27 11:48:57;;;;;;;4.90;3.03;;;6.20;68.50;;;;;;5048194;28;20680;-87
2022/02/27 11:51:45;;;;;;;3.88;3.10;;;6.20;59.90;;;;;;5050166;28;20204;-89
2022/02/27 11:54:15;;;;;;;4.20;3.50;;;6.30;59.50;;;;;;5050636;28;20215;-89
2022/02/27 11:56:44;;;;;;;3.50;3.20;;;6.40;60.30;;;;;;5050795;28;20231;-88
2022/02/27 11:59:13;;;;;;;5.53;3.15;;;6.40;59.10;;;;;;5050809;28;20280;-88
2022/02/27 12:01:56;;;;;;;4.47;3.72;;;6.40;59.80;;;;;;5050598;28;20270;-88
2022/02/27 12:04:28;;;;;;;5.47;3.53;;;6.30;67.30;;;;;;5069310;28;20269;-89
2022/02/27 12:07:05;;;;;;;3.50;3.20;;;6.30;59.30;;;;;;5070021;28;20284;-88
2022/02/27 12:09:54;;;;;;;4.13;3.65;;;6.30;59.60;;;;;;5070909;28;20222;-87
2022/02/27 12:12:46;;;;;;;4.97;4.22;;;6.30;67.30;;;;;;5070368;28;20239;-89
2022/02/27 12:15:24;;;;;;;5.15;3.97;;;6.40;59.90;;;;;;5070271;28;20268;-88
2022/02/27 12:17:55;;;;;;;4.88;3.78;;;6.40;59.50;;;;;;5070220;28;20199;-88
2022/02/27 12:20:46;;;;;;;4.55;4.07;;;6.50;59.20;;;;;;5070847;28;20276;-88
2022/02/27 12:23:34;;;;;;;3.60;3.30;;;6.40;66.70;;;;;;5070242;28;20231;-88
2022/02/27 12:26:04;;;;;;;4.65;3.70;;;6.40;59.10;;;;;;5070070;28;20212;-88
2022/02/27 12:28:56;;;;;;;4.38;3.53;;;6.30;66.10;;;;;;5069635;28;20199;-88
2022/02/27 12:31:27;;;;;;;4.75;4.13;;;6.40;67.50;;;;;;5069818;28;20199;-88
2022/02/27 12:33:55;;;;;;;3.42;3.13;;;6.40;59.00;;;;;;5070092;28;20231;-88
2022/02/27 12:36:23;;;;;;;4.40;4.00;;;6.40;58.90;;;;;;5069598;28;20567;-88
2022/02/27 12:39:01;;;;;;;4.80;3.85;;;6.70;66.10;;;;;;5069669;28;20273;-89
2022/02/27 12:41:36;;;;;;;4.60;3.67;;;6.70;58.80;;;;;;5053952;28;20235;-90
2022/02/27 12:44:04;;;;;;;4.45;3.70;;;6.50;59.00;;;;;;5050026;28;20285;-88
2022/02/27 12:46:33;;;;;;;3.63;3.33;;;6.50;58.30;;;;;;5049900;28;20294;-89
2022/02/27 12:51:48;;;;;;;3.92;3.50;;;6.70;59.60;;;;;;5048890;28;20550;-87
2022/02/27 12:54:19;;;;;;;5.28;3.90;;;5.90;66.50;;;;;;5049168;28;20694;-88
2022/02/27 12:56:59;;;;;;;6.63;3.65;;;6.60;59.00;;;;;;5049684;28;20195;-89
2022/02/27 12:59:28;;;;;;;4.90;3.58;;;6.70;58.70;;;;;;5049657;28;20288;-88
2022/02/27 13:01:57;;;;;;;5.85;3.88;;;6.60;58.40;;;;;;5049661;28;20318;-88
2022/02/27 13:04:29;;;;;;;5.10;3.30;;;6.60;58.50;;;;;;5068796;28;20207;-88
2022/02/27 13:07:06;;;;;;;5.93;4.10;;;6.60;58.10;;;;;;5070785;28;20203;-88
2022/02/27 13:09:36;;;;;;;3.70;3.40;;;6.80;57.30;;;;;;5070293;28;20199;-88
2022/02/27 13:12:09;;;;;;;5.18;4.25;;;6.70;57.70;;;;;;5069967;28;20213;-89
2022/02/27 13:14:36;;;;;;;3.88;3.40;;;6.70;57.10;;;;;;5069574;28;20204;-88
2022/02/27 13:17:10;;;;;;;4.75;3.53;;;6.60;63.80;;;;;;5068181;28;20231;-88
2022/02/27 13:19:39;;;;;;;5.90;4.15;;;6.70;57.70;;;;;;5069489;28;20621;-88
2022/02/27 13:22:09;;;;;;;5.25;3.85;;;6.70;57.60;;;;;;5069434;28;20242;-88
2022/02/27 13:24:38;;;;;;;8.45;3.67;;;6.70;57.70;;;;;;5069014;28;20666;-89
2022/02/27 13:27:08;;;;;;;5.70;3.30;;;6.80;57.80;;;;;;5068813;28;20215;-89
2022/02/27 13:29:48;;;;;;;4.63;3.70;;;6.70;65.40;;;;;;5068227;28;20289;-88
2022/02/27 13:32:19;;;;;;;4.97;4.00;;;6.70;58.30;;;;;;5068907;28;20297;-88
2022/02/27 13:34:46;;;;;;;6.65;4.60;;;6.80;58.30;;;;;;5068971;28;20585;-89
2022/02/27 13:37:14;;;;;;;5.90;4.72;;;6.80;58.40;;;;;;5068406;28;20195;-89
2022/02/27 13:39:40;;;;;;;5.38;3.85;;;6.80;58.20;;;;;;5067821;28;20250;-89
2022/02/27 13:42:07;;;;;;;5.18;3.92;;;6.40;63.80;;;;;;5048185;28;20748;-87
2022/02/27 13:44:34;;;;;;;5.63;4.20;;;6.80;58.30;;;;;;5048811;28;20200;-89
2022/02/27 13:47:01;;;;;;;6.55;4.03;;;6.80;58.40;;;;;;5048191;28;20207;-88